Time;durP1;ratioP1;P1;durP2;ratioP2;P2;SDS_P1;SDS_P2;PMS_P1;PMS_P2;Temp;Humidity;BMP_temperature;BMP_pressure;BME280_temperature;BME280_humidity;BME280_pressure;Samples;Min_cycle;Max_cycle;Signal;HPM_P1;HPM_P2
2023/01/25 00:02:19;;;;;;;45.33;25.33;;;0.60;99.90;;;;;;5073103;28;20094;-49
2023/01/25 00:04:45;;;;;;;44.25;24.63;;;0.70;99.90;;;;;;5072624;28;20048;-51
2023/01/25 00:07:11;;;;;;;45.42;25.88;;;0.60;99.90;;;;;;5072295;28;20090;-51
2023/01/25 00:09:36;;;;;;;45.35;24.95;;;0.60;99.90;;;;;;5075406;28;20048;-47
2023/01/25 00:12:02;;;;;;;45.03;24.60;;;0.60;99.90;;;;;;5080482;28;20400;-51
2023/01/25 00:14:28;;;;;;;45.35;25.73;;;0.60;99.90;;;;;;5072481;28;20035;-48
2023/01/25 00:16:53;;;;;;;42.92;23.88;;;0.60;99.90;;;;;;5070926;28;20484;-51
2023/01/25 00:19:19;;;;;;;43.50;23.90;;;0.60;99.90;;;;;;5072414;28;20037;-49
2023/01/25 00:21:45;;;;;;;45.17;24.77;;;0.60;99.90;;;;;;5072542;28;20765;-51
2023/01/25 00:24:13;;;;;;;47.55;25.67;;;0.50;99.90;;;;;;5072404;28;20024;-50
2023/01/25 00:26:39;;;;;;;43.83;25.00;;;0.60;99.90;;;;;;5072422;28;20040;-52
2023/01/25 00:29:05;;;;;;;43.13;24.88;;;0.50;99.90;;;;;;5070439;28;20105;-46
2023/01/25 00:31:33;;;;;;;44.20;23.92;;;0.50;99.90;;;;;;5072042;28;20047;-48
2023/01/25 00:34:37;;;;;;;43.63;23.85;;;0.50;99.90;;;;;;5070079;28;20033;-50
2023/01/25 00:37:05;;;;;;;41.58;23.35;;;0.50;99.90;;;;;;5081171;28;20111;-49
2023/01/25 00:39:31;;;;;;;39.20;22.33;;;0.40;99.90;;;;;;5071156;28;20075;-49
2023/01/25 00:41:57;;;;;;;42.83;23.52;;;0.40;99.90;;;;;;5071944;28;20094;-51
2023/01/25 00:44:22;;;;;;;40.53;22.52;;;0.40;99.90;;;;;;5071747;28;20075;-49
2023/01/25 00:46:48;;;;;;;45.70;23.85;;;0.40;99.90;;;;;;5072033;28;20040;-50
2023/01/25 00:49:25;;;;;;;42.50;23.08;;;0.40;99.90;;;;;;5070332;28;20040;-48
2023/01/25 00:51:52;;;;;;;40.45;22.10;;;0.40;99.90;;;;;;5071549;28;20040;-49
2023/01/25 00:54:18;;;;;;;44.60;24.05;;;0.40;99.90;;;;;;5071628;28;20584;-49
2023/01/25 00:56:44;;;;;;;45.70;25.65;;;0.40;99.90;;;;;;5071135;28;20086;-48
2023/01/25 00:59:10;;;;;;;43.55;24.73;;;0.40;99.90;;;;;;5071293;28;20044;-50
2023/01/25 01:01:36;;;;;;;44.58;23.77;;;0.40;99.90;;;;;;5071761;28;20119;-49
2023/01/25 01:04:02;;;;;;;44.17;23.98;;;0.40;99.90;;;;;;5071413;28;20044;-50
2023/01/25 01:06:28;;;;;;;43.97;24.80;;;0.40;99.90;;;;;;5071306;28;20090;-49
2023/01/25 01:08:54;;;;;;;46.72;23.60;;;0.40;99.90;;;;;;5069885;28;20049;-50
2023/01/25 01:11:19;;;;;;;46.78;25.55;;;0.30;99.90;;;;;;5053435;28;20040;-53
2023/01/25 01:13:45;;;;;;;43.22;23.88;;;0.40;99.90;;;;;;5071286;28;20495;-50
2023/01/25 01:16:11;;;;;;;43.35;23.52;;;0.40;99.90;;;;;;5071209;28;20086;-50
2023/01/25 01:18:42;;;;;;;41.88;23.60;;;0.40;99.90;;;;;;5070913;28;20051;-49
2023/01/25 01:21:10;;;;;;;41.65;23.88;;;0.40;99.90;;;;;;5086839;28;20072;-51
2023/01/25 01:23:36;;;;;;;43.20;24.08;;;0.40;99.90;;;;;;5071151;28;20041;-48
2023/01/25 01:26:08;;;;;;;48.47;25.38;;;0.40;99.90;;;;;;5071476;28;20040;-50
2023/01/25 01:28:35;;;;;;;43.67;25.35;;;0.40;99.90;;;;;;5071217;28;20040;-47
2023/01/25 01:31:07;;;;;;;47.72;24.35;;;0.40;99.90;;;;;;5071322;28;20532;-51
2023/01/25 01:33:33;;;;;;;43.72;23.80;;;0.40;99.90;;;;;;5071177;28;20040;-49
2023/01/25 01:36:13;;;;;;;43.83;24.00;;;0.40;99.90;;;;;;5071250;28;20127;-50
2023/01/25 01:38:39;;;;;;;47.10;23.73;;;0.40;99.90;;;;;;5070444;28;20104;-51
2023/01/25 01:41:05;;;;;;;47.08;23.98;;;0.30;99.90;;;;;;5070796;28;20128;-51
2023/01/25 01:43:31;;;;;;;43.45;22.90;;;0.30;99.90;;;;;;5070676;28;20115;-49
2023/01/25 01:45:59;;;;;;;47.15;25.17;;;0.40;99.90;;;;;;5071059;28;20032;-50
2023/01/25 01:48:36;;;;;;;45.30;24.33;;;0.40;99.90;;;;;;5070757;28;20396;-50
2023/01/25 01:51:12;;;;;;;47.60;24.45;;;0.40;99.90;;;;;;5071003;28;20388;-48
2023/01/25 01:53:42;;;;;;;50.80;27.05;;;0.40;99.90;;;;;;5070992;28;20041;-48
2023/01/25 01:56:12;;;;;;;45.60;24.98;;;0.40;99.90;;;;;;5070940;28;20361;-50
2023/01/25 01:58:39;;;;;;;45.25;23.90;;;0.30;99.90;;;;;;5069315;28;20048;-48
2023/01/25 02:01:05;;;;;;;49.70;26.30;;;0.40;99.90;;;;;;5069403;28;20044;-49
2023/01/25 02:03:32;;;;;;;47.92;25.67;;;0.40;99.90;;;;;;5070885;28;20037;-49
2023/01/25 02:06:08;;;;;;;48.38;26.00;;;0.40;99.90;;;;;;5070628;28;20381;-48
2023/01/25 02:08:35;;;;;;;49.25;25.35;;;0.30;99.90;;;;;;5070586;28;20106;-50
2023/01/25 02:11:03;;;;;;;48.45;25.33;;;0.30;99.90;;;;;;5070455;28;20032;-49
2023/01/25 02:13:31;;;;;;;49.25;26.58;;;0.30;99.90;;;;;;5070882;28;20120;-51
2023/01/25 02:15:57;;;;;;;49.58;25.70;;;0.30;99.90;;;;;;5070243;28;20141;-51
2023/01/25 02:18:24;;;;;;;47.17;24.45;;;0.30;99.90;;;;;;5070810;28;20097;-48
2023/01/25 02:20:52;;;;;;;51.03;25.95;;;0.40;99.90;;;;;;5070628;28;20388;-50
2023/01/25 02:23:23;;;;;;;49.28;24.92;;;0.40;99.90;;;;;;5070425;28;20036;-49
2023/01/25 02:25:50;;;;;;;49.47;24.92;;;0.30;99.90;;;;;;5070192;28;20043;-50
2023/01/25 02:28:26;;;;;;;49.30;24.92;;;0.40;99.90;;;;;;5070481;28;20042;-50
2023/01/25 02:30:52;;;;;;;49.13;26.83;;;0.30;99.90;;;;;;5069874;28;20044;-48
2023/01/25 02:33:18;;;;;;;50.78;25.58;;;0.30;99.90;;;;;;5070642;28;20044;-48
2023/01/25 02:35:47;;;;;;;50.53;26.65;;;0.30;99.90;;;;;;5068008;28;20399;-51
2023/01/25 02:38:16;;;;;;;50.00;25.88;;;0.30;99.90;;;;;;5069941;28;20040;-49
2023/01/25 02:40:49;;;;;;;49.45;25.65;;;0.30;99.90;;;;;;5067790;28;20040;-49
2023/01/25 02:43:16;;;;;;;51.58;25.42;;;0.20;99.90;;;;;;5070562;28;20043;-48
2023/01/25 02:45:49;;;;;;;51.22;25.55;;;0.20;99.90;;;;;;5070197;28;20032;-50
2023/01/25 02:48:15;;;;;;;48.78;24.67;;;0.20;99.90;;;;;;5070118;28;20127;-49
2023/01/25 02:50:41;;;;;;;50.42;25.52;;;0.20;99.90;;;;;;5070244;28;20056;-48
2023/01/25 02:53:06;;;;;;;48.40;23.90;;;0.20;99.90;;;;;;5086795;28;20109;-49
2023/01/25 02:55:32;;;;;;;50.65;26.42;;;0.10;99.90;;;;;;5074149;28;20041;-49
2023/01/25 02:57:58;;;;;;;48.75;25.25;;;0.10;99.90;;;;;;5073834;28;20563;-49
2023/01/25 03:00:24;;;;;;;52.72;26.05;;;0.10;99.90;;;;;;5072330;28;20119;-52
2023/01/25 03:02:49;;;;;;;50.33;24.42;;;0.10;99.90;;;;;;5073904;28;20041;-53
2023/01/25 03:05:15;;;;;;;52.58;25.85;;;0.10;99.90;;;;;;5072806;28;20047;-50
2023/01/25 03:07:41;;;;;;;52.95;27.13;;;0.10;99.90;;;;;;5073665;28;20396;-50
2023/01/25 03:10:07;;;;;;;49.13;26.10;;;0.20;99.90;;;;;;5073925;28;20072;-49
2023/01/25 03:12:33;;;;;;;48.05;23.95;;;0.10;99.90;;;;;;5073759;28;20043;-51
2023/01/25 03:14:58;;;;;;;49.10;25.38;;;0.10;99.90;;;;;;5073554;28;20048;-50
2023/01/25 03:17:24;;;;;;;51.42;25.58;;;0.40;99.90;;;;;;5071984;28;20041;-51
2023/01/25 03:19:50;;;;;;;52.67;26.83;;;0.10;99.90;;;;;;5072255;28;20051;-51
2023/01/25 03:22:15;;;;;;;55.42;25.90;;;0.10;99.90;;;;;;5072312;28;20044;-50
2023/01/25 03:24:41;;;;;;;52.47;26.35;;;0.10;99.90;;;;;;5073521;28;20476;-49
2023/01/25 03:27:10;;;;;;;53.90;26.67;;;0.20;99.90;;;;;;5073554;28;20068;-48
2023/01/25 03:29:36;;;;;;;51.83;25.48;;;0.20;99.90;;;;;;5073600;28;20048;-47
2023/01/25 03:32:03;;;;;;;54.05;26.92;;;0.10;99.90;;;;;;5073226;28;20115;-50
2023/01/25 03:34:29;;;;;;;54.28;26.15;;;0.10;99.90;;;;;;5074618;28;20037;-51
2023/01/25 03:36:54;;;;;;;52.92;26.73;;;0.10;99.90;;;;;;5077130;28;20044;-51
2023/01/25 03:39:20;;;;;;;50.30;24.23;;;0.10;99.90;;;;;;5075897;28;20032;-51
2023/01/25 03:41:46;;;;;;;52.90;26.20;;;0.10;99.90;;;;;;5076359;28;20040;-50
2023/01/25 03:44:12;;;;;;;51.65;25.83;;;0.10;99.90;;;;;;5071621;28;20036;-51
2023/01/25 03:46:38;;;;;;;50.38;24.73;;;0.10;99.90;;;;;;5073252;28;20051;-50
2023/01/25 03:49:04;;;;;;;52.40;26.40;;;0.10;99.90;;;;;;5073317;28;20033;-51
2023/01/25 03:51:30;;;;;;;49.97;25.48;;;0.10;99.90;;;;;;5072776;28;20029;-51
2023/01/25 03:53:55;;;;;;;52.28;25.45;;;0.10;99.90;;;;;;5073097;28;20040;-49
2023/01/25 03:56:21;;;;;;;51.42;25.30;;;0.10;99.90;;;;;;5072889;28;20040;-50
2023/01/25 03:58:47;;;;;;;50.30;25.15;;;0.70;99.90;;;;;;5072509;28;20500;-49
2023/01/25 04:01:13;;;;;;;49.45;25.10;;;0.10;99.90;;;;;;5072724;28;20123;-51
2023/01/25 04:03:39;;;;;;;50.13;25.60;;;0.10;99.90;;;;;;5072779;28;20034;-49
2023/01/25 04:06:05;;;;;;;50.00;25.30;;;0.10;99.90;;;;;;5073041;28;20037;-51
2023/01/25 04:08:30;;;;;;;52.38;26.25;;;0.10;99.90;;;;;;5072645;28;20052;-47
2023/01/25 04:11:01;;;;;;;53.15;27.55;;;0.10;99.90;;;;;;5072446;28;20037;-52
2023/01/25 04:13:27;;;;;;;52.05;25.15;;;0.00;99.90;;;;;;5071960;28;20464;-48
2023/01/25 04:15:53;;;;;;;48.33;24.50;;;0.10;99.90;;;;;;5071292;28;20036;-53
2023/01/25 04:18:19;;;;;;;50.22;24.77;;;0.00;99.90;;;;;;5072431;28;20120;-49
2023/01/25 04:20:51;;;;;;;47.15;23.13;;;0.00;99.90;;;;;;5072155;28;20154;-52
2023/01/25 04:23:17;;;;;;;50.20;24.00;;;0.00;99.90;;;;;;5072658;28;20033;-48
2023/01/25 04:25:42;;;;;;;46.30;24.17;;;0.00;99.90;;;;;;5072629;28;21984;-49
2023/01/25 04:28:08;;;;;;;48.03;23.83;;;0.00;99.90;;;;;;5070921;28;20344;-48
2023/01/25 04:30:34;;;;;;;49.08;24.33;;;0.00;99.90;;;;;;5072490;28;20036;-50
2023/01/25 04:33:04;;;;;;;49.53;25.73;;;0.00;99.90;;;;;;5072393;28;20049;-52
2023/01/25 04:35:30;;;;;;;49.13;24.65;;;-0.10;99.90;;;;;;5071774;28;20387;-49
2023/01/25 04:37:57;;;;;;;52.10;24.65;;;-0.10;99.90;;;;;;5071608;28;20044;-49
2023/01/25 04:40:23;;;;;;;47.50;23.65;;;-0.10;99.90;;;;;;5072273;28;20041;-52
2023/01/25 04:42:49;;;;;;;47.13;24.33;;;-0.10;99.90;;;;;;5071907;28;20028;-49
2023/01/25 04:45:14;;;;;;;46.15;22.63;;;0.00;99.90;;;;;;5072017;28;20047;-50
2023/01/25 04:47:40;;;;;;;50.20;24.50;;;-0.10;99.90;;;;;;5072082;28;20044;-53
2023/01/25 04:50:06;;;;;;;49.38;23.92;;;-0.10;99.90;;;;;;5072071;28;20044;-47
2023/01/25 04:52:32;;;;;;;48.58;23.02;;;-0.10;99.90;;;;;;5070081;28;20123;-51
2023/01/25 04:54:57;;;;;;;44.47;22.52;;;-0.10;99.90;;;;;;5071546;28;20037;-49
2023/01/25 04:57:23;;;;;;;46.47;23.20;;;-0.10;99.90;;;;;;5071135;28;20064;-48
2023/01/25 04:59:49;;;;;;;51.35;24.52;;;-0.10;99.90;;;;;;5071968;28;20070;-52
2023/01/25 05:02:15;;;;;;;50.83;24.92;;;-0.10;99.90;;;;;;5071275;28;20502;-47
2023/01/25 05:04:40;;;;;;;48.03;23.92;;;-0.10;99.90;;;;;;5070232;28;20427;-50
2023/01/25 05:07:06;;;;;;;49.90;24.40;;;-0.10;99.90;;;;;;5070597;28;20106;-47
2023/01/25 05:09:32;;;;;;;51.38;25.15;;;-0.10;99.90;;;;;;5071488;28;20076;-50
2023/01/25 05:11:57;;;;;;;49.08;23.98;;;-0.10;99.90;;;;;;5071475;28;20036;-48
2023/01/25 05:14:23;;;;;;;53.40;25.55;;;-0.10;99.90;;;;;;5069982;28;20037;-53
2023/01/25 05:16:49;;;;;;;54.00;25.92;;;-0.10;99.90;;;;;;5070934;28;20400;-51
2023/01/25 05:19:15;;;;;;;52.00;24.73;;;-0.10;99.90;;;;;;5071141;28;20045;-49
2023/01/25 05:21:59;;;;;;;50.97;25.17;;;-0.10;99.90;;;;;;5071148;28;20112;-47
2023/01/25 05:24:29;;;;;;;54.30;24.77;;;-0.10;99.90;;;;;;5070559;28;20113;-52
2023/01/25 05:27:05;;;;;;;51.75;24.45;;;0.00;99.90;;;;;;5091350;28;20395;-48
2023/01/25 05:29:36;;;;;;;55.53;24.58;;;-0.10;99.90;;;;;;5081963;28;20105;-49
2023/01/25 05:32:21;;;;;;;53.03;26.08;;;-0.10;99.90;;;;;;5071106;28;20088;-48
2023/01/25 05:34:48;;;;;;;47.70;24.15;;;-0.10;99.90;;;;;;5071212;28;20119;-48
2023/01/25 05:37:17;;;;;;;49.58;24.95;;;-0.10;99.90;;;;;;5070178;28;20062;-52
2023/01/25 05:39:42;;;;;;;54.58;26.30;;;-0.10;99.90;;;;;;5069952;28;20048;-51
2023/01/25 05:42:14;;;;;;;52.83;24.83;;;-0.10;99.90;;;;;;5071041;28;20036;-47
2023/01/25 05:44:40;;;;;;;50.45;24.60;;;-0.10;99.90;;;;;;5070833;28;20033;-49
2023/01/25 05:47:06;;;;;;;54.33;26.05;;;-0.10;99.90;;;;;;5069763;28;20045;-50
2023/01/25 05:49:32;;;;;;;48.00;23.67;;;-0.10;99.90;;;;;;5070561;28;20123;-48
2023/01/25 05:51:58;;;;;;;49.50;25.05;;;-0.10;99.90;;;;;;5070844;28;20123;-50
2023/01/25 05:54:23;;;;;;;48.10;23.55;;;-0.10;99.90;;;;;;5070730;28;20083;-49
2023/01/25 05:56:49;;;;;;;52.35;25.85;;;-0.10;99.90;;;;;;5070731;28;20069;-49
2023/01/25 05:59:16;;;;;;;51.22;24.92;;;-0.10;99.90;;;;;;5070518;28;20458;-49
2023/01/25 06:01:42;;;;;;;52.97;25.75;;;-0.10;99.90;;;;;;5070816;28;20040;-49
2023/01/25 06:04:13;;;;;;;48.40;24.40;;;-0.10;99.90;;;;;;5070599;28;20446;-48
2023/01/25 06:06:39;;;;;;;51.85;24.55;;;-0.20;99.90;;;;;;5069593;28;20044;-51
2023/01/25 06:09:05;;;;;;;49.88;23.52;;;-0.10;99.90;;;;;;5070650;28;20658;-49
2023/01/25 06:11:30;;;;;;;50.17;23.23;;;-0.10;99.90;;;;;;5070420;28;20403;-51
2023/01/25 06:13:56;;;;;;;50.60;24.23;;;-0.20;99.90;;;;;;5070718;28;20044;-51
2023/01/25 06:16:22;;;;;;;50.63;24.20;;;-0.10;99.90;;;;;;5072999;28;20036;-50
2023/01/25 06:18:48;;;;;;;44.33;22.77;;;-0.20;99.90;;;;;;5070729;28;20039;-53
2023/01/25 06:21:14;;;;;;;47.83;24.15;;;-0.20;99.90;;;;;;5070709;28;20044;-47
2023/01/25 06:23:39;;;;;;;49.17;23.90;;;-0.20;99.90;;;;;;5070595;28;20441;-51
2023/01/25 06:26:09;;;;;;;50.45;23.73;;;-0.20;99.90;;;;;;5070711;28;20542;-52
2023/01/25 06:28:35;;;;;;;46.20;22.67;;;-0.20;99.90;;;;;;5074399;28;20067;-48
2023/01/25 06:31:05;;;;;;;49.72;23.27;;;-0.30;99.90;;;;;;5073428;28;20044;-47
2023/01/25 06:33:31;;;;;;;49.38;24.40;;;-0.30;99.90;;;;;;5074715;28;20101;-51
2023/01/25 06:36:01;;;;;;;48.22;23.15;;;-0.30;99.90;;;;;;5073864;28;20439;-49
2023/01/25 06:38:27;;;;;;;45.60;21.08;;;-0.30;99.90;;;;;;5074196;28;20035;-50
2023/01/25 06:40:53;;;;;;;47.03;21.88;;;-0.30;99.90;;;;;;5074321;28;20388;-50
2023/01/25 06:43:18;;;;;;;44.30;20.60;;;-0.30;99.90;;;;;;5074166;28;20036;-51
2023/01/25 06:45:44;;;;;;;49.35;23.77;;;-0.40;99.90;;;;;;5072485;28;20075;-49
2023/01/25 06:48:10;;;;;;;48.95;22.95;;;-0.30;99.90;;;;;;5074222;28;20032;-48
2023/01/25 06:50:35;;;;;;;54.63;25.13;;;-0.30;99.90;;;;;;5074272;28;20097;-49
2023/01/25 06:53:01;;;;;;;50.50;22.60;;;-0.30;99.90;;;;;;5074230;28;20036;-53
2023/01/25 06:55:27;;;;;;;52.30;23.77;;;-0.30;99.90;;;;;;5073909;28;20480;-51
2023/01/25 06:57:52;;;;;;;51.80;23.27;;;-0.30;99.90;;;;;;5073529;28;20052;-52
2023/01/25 07:00:18;;;;;;;49.85;23.67;;;-0.30;99.90;;;;;;5073916;28;20044;-52
2023/01/25 07:02:44;;;;;;;46.25;22.05;;;-0.30;99.90;;;;;;5073850;28;20454;-49
2023/01/25 07:05:10;;;;;;;48.33;23.52;;;-0.30;99.90;;;;;;5073706;28;20116;-50
2023/01/25 07:07:35;;;;;;;48.10;21.85;;;-0.30;99.90;;;;;;5073723;28;20399;-52
2023/01/25 07:10:01;;;;;;;47.00;21.50;;;-0.30;99.90;;;;;;5073572;28;20047;-48
2023/01/25 07:12:30;;;;;;;45.58;21.90;;;-0.30;99.90;;;;;;5073650;28;20039;-48
2023/01/25 07:14:56;;;;;;;49.95;23.88;;;-0.30;99.90;;;;;;5090150;28;20093;-52
2023/01/25 07:17:22;;;;;;;46.92;22.23;;;-0.30;99.90;;;;;;5073545;28;20127;-51
2023/01/25 07:19:47;;;;;;;49.28;23.23;;;-0.30;99.90;;;;;;5073187;28;20091;-50
2023/01/25 07:22:13;;;;;;;44.78;21.65;;;-0.30;99.90;;;;;;5072257;28;20040;-53
2023/01/25 07:24:39;;;;;;;49.38;22.98;;;-0.30;99.90;;;;;;5073133;28;20045;-49
2023/01/25 07:27:04;;;;;;;47.05;22.35;;;-0.10;99.90;;;;;;5073604;28;20041;-51
2023/01/25 07:29:30;;;;;;;47.45;22.83;;;-0.30;99.90;;;;;;5073660;28;20508;-50
2023/01/25 07:31:56;;;;;;;45.35;20.90;;;-0.20;99.90;;;;;;5073420;28;20471;-51
2023/01/25 07:34:22;;;;;;;42.08;21.27;;;-0.30;99.90;;;;;;5073233;28;20102;-48
2023/01/25 07:36:47;;;;;;;44.63;21.27;;;-0.30;99.90;;;;;;5078061;28;20044;-48
2023/01/25 07:39:13;;;;;;;45.17;22.00;;;-0.10;99.90;;;;;;5076848;28;20032;-49
2023/01/25 07:41:39;;;;;;;42.47;20.85;;;-0.30;99.90;;;;;;5072998;28;20074;-48
2023/01/25 07:44:05;;;;;;;42.97;21.63;;;-0.40;99.90;;;;;;5072932;28;20032;-48
2023/01/25 07:46:31;;;;;;;45.20;21.25;;;-0.40;99.90;;;;;;5072953;28;20043;-52
2023/01/25 07:49:00;;;;;;;40.65;20.80;;;-0.40;99.90;;;;;;5073103;28;20036;-49
2023/01/25 07:51:26;;;;;;;42.80;20.25;;;-0.40;99.90;;;;;;5076931;28;20503;-48
2023/01/25 07:53:58;;;;;;;45.20;21.33;;;-0.40;99.90;;;;;;5071240;28;20044;-50
2023/01/25 07:56:36;;;;;;;43.78;20.02;;;-0.40;99.90;;;;;;5072733;28;20041;-51
2023/01/25 07:59:03;;;;;;;41.67;19.02;;;-0.40;99.90;;;;;;5072558;28;20075;-48
2023/01/25 08:01:32;;;;;;;44.80;20.38;;;-0.40;99.90;;;;;;5071139;28;20044;-49
2023/01/25 08:03:59;;;;;;;42.25;20.33;;;-0.30;99.90;;;;;;5059867;28;20047;-50
2023/01/25 08:06:33;;;;;;;40.35;19.30;;;-0.50;99.90;;;;;;5059537;28;20361;-48
2023/01/25 08:08:59;;;;;;;40.72;19.25;;;-0.50;99.90;;;;;;5060249;28;20047;-50
2023/01/25 08:11:27;;;;;;;43.00;19.92;;;-0.50;99.90;;;;;;5058509;28;20029;-51
2023/01/25 08:13:53;;;;;;;40.08;18.65;;;-0.50;99.90;;;;;;5058794;28;20066;-50
2023/01/25 08:16:21;;;;;;;42.42;19.98;;;-0.50;99.90;;;;;;5055823;28;20186;-50
2023/01/25 08:18:52;;;;;;;44.08;19.27;;;-0.50;99.90;;;;;;5060748;28;20036;-53
2023/01/25 08:21:17;;;;;;;44.88;20.30;;;-0.50;99.90;;;;;;5063354;28;20037;-50
2023/01/25 08:23:43;;;;;;;44.10;19.77;;;-0.50;99.90;;;;;;5060380;28;20044;-49
2023/01/25 08:26:11;;;;;;;41.95;19.13;;;-0.50;99.90;;;;;;5060709;28;20071;-47
2023/01/25 08:28:37;;;;;;;47.50;21.10;;;-0.50;99.90;;;;;;5060183;28;20527;-47
2023/01/25 08:31:08;;;;;;;47.55;21.75;;;-0.50;99.90;;;;;;5058220;28;20068;-46
2023/01/25 08:33:34;;;;;;;49.28;22.42;;;-0.50;99.90;;;;;;5056970;28;20040;-47
2023/01/25 08:36:00;;;;;;;48.22;22.00;;;-0.50;99.90;;;;;;5061227;28;20036;-47
2023/01/25 08:38:26;;;;;;;48.10;21.50;;;-0.40;99.90;;;;;;5063303;28;20370;-48
2023/01/25 08:40:51;;;;;;;50.78;23.33;;;-0.40;99.90;;;;;;5060488;28;20044;-48
2023/01/25 08:43:17;;;;;;;52.80;22.77;;;-0.40;99.90;;;;;;5060093;28;20048;-48
2023/01/25 08:45:43;;;;;;;48.00;22.45;;;-0.40;99.90;;;;;;5056927;28;20033;-49
2023/01/25 08:48:11;;;;;;;44.97;20.88;;;-0.30;99.90;;;;;;5059439;28;20047;-51
2023/01/25 08:50:37;;;;;;;49.95;21.17;;;-0.20;99.90;;;;;;5056498;28;20103;-50
2023/01/25 08:53:03;;;;;;;45.55;20.90;;;-0.40;99.90;;;;;;5057027;28;20116;-48
2023/01/25 08:55:28;;;;;;;47.55;20.70;;;-0.40;99.90;;;;;;5058888;28;20040;-48
2023/01/25 08:57:54;;;;;;;46.95;22.30;;;-0.40;99.90;;;;;;5059340;28;20044;-47
2023/01/25 09:00:20;;;;;;;48.38;22.10;;;-0.30;99.90;;;;;;5058001;28;20437;-46
2023/01/25 09:02:46;;;;;;;48.58;22.00;;;-0.30;99.90;;;;;;5058994;28;20370;-47
2023/01/25 09:05:11;;;;;;;50.53;22.02;;;1.20;99.90;;;;;;5056705;28;20036;-47
2023/01/25 09:07:38;;;;;;;47.78;22.52;;;-0.40;99.90;;;;;;5056493;28;20045;-48
2023/01/25 09:10:07;;;;;;;47.92;22.38;;;-0.40;99.90;;;;;;5056993;28;20051;-50
2023/01/25 09:12:34;;;;;;;48.22;21.02;;;-0.40;99.90;;;;;;5057338;28;20078;-49
2023/01/25 09:15:01;;;;;;;49.97;22.33;;;-0.40;99.90;;;;;;5052877;28;20216;-46
2023/01/25 09:17:26;;;;;;;53.63;22.00;;;-0.30;99.90;;;;;;5057841;28;20044;-47
2023/01/25 09:19:52;;;;;;;51.25;21.98;;;-0.40;99.90;;;;;;5056180;28;20447;-47
2023/01/25 09:22:24;;;;;;;50.95;23.35;;;-0.40;99.90;;;;;;5078794;27;20428;-48
2023/01/25 09:24:52;;;;;;;45.33;21.45;;;-0.40;99.90;;;;;;5057889;28;20029;-49
2023/01/25 09:27:18;;;;;;;48.75;22.77;;;-0.30;99.90;;;;;;5058395;28;20037;-49
2023/01/25 09:29:44;;;;;;;48.10;22.02;;;-0.40;99.90;;;;;;5056574;28;20090;-47
2023/01/25 09:32:09;;;;;;;49.20;21.95;;;-0.40;99.90;;;;;;5055441;28;20127;-48
2023/01/25 09:34:35;;;;;;;52.45;23.75;;;-0.50;99.90;;;;;;5056953;28;21375;-46
2023/01/25 09:37:01;;;;;;;51.10;22.02;;;-0.40;99.90;;;;;;5056215;28;20179;-47
2023/01/25 09:39:26;;;;;;;44.38;20.13;;;-0.40;99.90;;;;;;5057593;28;20045;-46
2023/01/25 09:42:12;;;;;;;54.50;21.88;;;-0.40;99.90;;;;;;5058211;28;20039;-46
2023/01/25 09:44:56;;;;;;;53.53;22.00;;;-0.40;99.90;;;;;;5057163;28;20044;-47
2023/01/25 09:47:28;;;;;;;58.90;23.27;;;-0.30;99.90;;;;;;5057616;28;20112;-48
2023/01/25 09:50:31;;;;;;;57.97;24.02;;;-0.40;99.90;;;;;;5057887;28;20086;-46
2023/01/25 09:53:23;;;;;;;60.25;22.35;;;-0.40;99.90;;;;;;5039963;28;20051;-46
2023/01/25 09:55:57;;;;;;;54.47;22.65;;;-0.30;99.90;;;;;;5057363;28;20037;-46
2023/01/25 09:58:33;;;;;;;47.95;20.55;;;-0.40;99.90;;;;;;5058684;28;20128;-47
2023/01/25 10:01:28;;;;;;;59.80;23.33;;;0.00;99.90;;;;;;5057958;28;20036;-46
2023/01/25 10:03:54;;;;;;;52.80;22.20;;;-0.40;99.90;;;;;;5058096;28;20178;-46
2023/01/25 10:06:24;;;;;;;54.65;21.73;;;-0.40;99.90;;;;;;5058147;28;20115;-48
2023/01/25 10:09:04;;;;;;;53.92;21.98;;;-0.50;99.90;;;;;;5057932;28;20082;-47
2023/01/25 10:11:32;;;;;;;50.60;21.00;;;-0.40;99.90;;;;;;5058207;28;20044;-47
2023/01/25 10:13:58;;;;;;;53.50;21.15;;;-0.50;99.90;;;;;;5057870;28;20555;-46
2023/01/25 10:16:38;;;;;;;50.55;20.60;;;-0.50;99.90;;;;;;5058060;28;20048;-46
2023/01/25 10:19:13;;;;;;;51.40;20.85;;;-0.50;99.90;;;;;;5056374;28;20041;-48
2023/01/25 10:22:08;;;;;;;46.55;19.85;;;-0.40;99.90;;;;;;5057206;28;20040;-47
2023/01/25 10:24:33;;;;;;;;;;;-0.50;99.90;;;;;;5054746;28;20135;-47
2023/01/25 10:27:19;;;;;;;46.75;18.80;;;-0.50;99.90;;;;;;5064465;28;20015;-48
2023/01/25 10:29:47;;;;;;;51.78;20.35;;;-0.50;99.90;;;;;;5062879;28;20048;-45
2023/01/25 10:32:38;;;;;;;54.92;21.08;;;-0.40;99.90;;;;;;5060210;28;20045;-46
2023/01/25 10:35:17;;;;;;;49.72;19.17;;;-0.50;99.90;;;;;;5049720;28;20049;-46
2023/01/25 10:37:43;;;;;;;49.00;19.52;;;-0.50;99.90;;;;;;5052985;28;20047;-46
2023/01/25 10:40:18;;;;;;;50.40;19.60;;;-0.40;99.90;;;;;;5053251;28;20041;-47
2023/01/25 10:42:57;;;;;;;51.97;20.27;;;-0.50;99.90;;;;;;5052360;28;20064;-46
2023/01/25 10:45:22;;;;;;;54.42;20.95;;;-0.50;99.90;;;;;;5053529;28;20496;-46
2023/01/25 10:48:02;;;;;;;54.63;22.55;;;-0.40;99.90;;;;;;5053325;28;20095;-46
2023/01/25 10:50:42;;;;;;;50.65;21.15;;;-0.30;99.90;;;;;;5052041;28;20036;-48
2023/01/25 10:53:22;;;;;;;50.67;20.20;;;-0.50;99.90;;;;;;5053121;28;20045;-46
2023/01/25 10:56:09;;;;;;;49.17;18.33;;;-0.30;99.90;;;;;;5051549;28;20073;-48
2023/01/25 10:58:43;;;;;;;53.85;21.85;;;-0.40;99.90;;;;;;5053127;28;20499;-45
2023/01/25 11:01:30;;;;;;;51.60;20.23;;;-0.40;99.90;;;;;;5051264;28;20120;-46
2023/01/25 11:03:57;;;;;;;52.67;20.17;;;-0.30;99.90;;;;;;5045966;28;20116;-46
2023/01/25 11:06:36;;;;;;;52.72;20.80;;;-0.40;99.90;;;;;;5052917;28;20032;-46
2023/01/25 11:09:29;;;;;;;52.72;20.58;;;-0.40;99.90;;;;;;5047688;28;20163;-49
2023/01/25 11:12:19;;;;;;;56.88;21.10;;;-0.30;99.90;;;;;;5042714;28;20526;-48
2023/01/25 11:14:48;;;;;;;54.63;20.02;;;0.00;99.90;;;;;;5048116;28;20049;-45
2023/01/25 11:17:23;;;;;;;56.38;22.73;;;0.50;99.90;;;;;;5048058;28;20554;-46
2023/01/25 11:20:14;;;;;;;54.38;20.70;;;-0.40;99.90;;;;;;5046258;28;20104;-49
2023/01/25 11:22:52;;;;;;;52.78;21.88;;;-0.20;99.90;;;;;;5041541;28;20049;-46
2023/01/25 11:25:29;;;;;;;55.47;21.25;;;-0.30;99.90;;;;;;5040208;28;20037;-48
2023/01/25 11:28:18;;;;;;;56.35;21.23;;;-0.50;99.90;;;;;;5046289;28;20377;-48
2023/01/25 11:30:45;;;;;;;58.83;22.08;;;-0.40;99.90;;;;;;5043299;28;20045;-45
2023/01/25 11:33:12;;;;;;;60.28;22.17;;;-0.20;99.90;;;;;;5040673;28;20057;-49
2023/01/25 11:35:48;;;;;;;65.53;21.75;;;-0.40;99.90;;;;;;5042221;28;20037;-49
2023/01/25 11:38:20;;;;;;;65.63;22.50;;;-0.40;99.90;;;;;;5041968;28;20126;-47
2023/01/25 11:40:56;;;;;;;64.63;22.55;;;-0.40;99.90;;;;;;5040393;28;20408;-48
2023/01/25 11:43:54;;;;;;;60.35;21.20;;;-0.40;99.90;;;;;;5041634;28;20087;-50
2023/01/25 11:46:29;;;;;;;54.33;20.50;;;-0.20;99.90;;;;;;5044478;28;20037;-46
2023/01/25 11:49:27;;;;;;;54.00;20.83;;;-0.20;99.90;;;;;;5045583;28;20080;-46
2023/01/25 11:52:09;;;;;;;60.72;22.35;;;-0.30;99.90;;;;;;5043436;28;20045;-48
2023/01/25 11:54:56;;;;;;;54.13;20.88;;;-0.30;99.90;;;;;;5042357;28;20084;-47
2023/01/25 11:57:37;;;;;;;60.38;21.05;;;-0.40;99.90;;;;;;5041843;28;20041;-46
2023/01/25 12:00:17;;;;;;;49.97;19.10;;;-0.30;99.90;;;;;;5039126;28;20040;-46
2023/01/25 12:03:02;;;;;;;61.38;23.42;;;-0.40;99.90;;;;;;5036011;28;20361;-47
2023/01/25 12:05:52;;;;;;;54.20;20.50;;;-0.40;99.90;;;;;;5043659;28;20045;-47
2023/01/25 12:08:35;;;;;;;55.55;21.85;;;-0.30;99.90;;;;;;5035123;28;20041;-46
2023/01/25 12:11:03;;;;;;;58.60;22.50;;;0.10;99.90;;;;;;5036503;28;20037;-46
2023/01/25 12:13:29;;;;;;;60.33;20.90;;;-0.30;99.90;;;;;;5049346;28;20053;-47
2023/01/25 12:16:23;;;;;;;59.47;21.48;;;-0.40;99.90;;;;;;5050626;28;20045;-47
2023/01/25 12:19:14;;;;;;;55.00;21.42;;;-0.30;99.90;;;;;;5051093;28;20119;-48
2023/01/25 12:21:58;;;;;;;55.15;19.23;;;-0.40;99.90;;;;;;5048253;28;20159;-46
2023/01/25 12:24:57;;;;;;;56.60;19.00;;;-0.30;99.90;;;;;;5050186;28;20075;-46
2023/01/25 12:27:51;;;;;;;54.47;20.15;;;-0.30;99.90;;;;;;5050556;28;20037;-47
2023/01/25 12:30:35;;;;;;;52.15;19.10;;;-0.30;99.90;;;;;;5050768;28;20135;-48
2023/01/25 12:33:11;;;;;;;48.95;17.80;;;-0.50;99.90;;;;;;5050938;28;20507;-46
2023/01/25 12:35:41;;;;;;;51.20;19.13;;;-0.40;99.90;;;;;;5050059;28;20169;-48
2023/01/25 12:38:17;;;;;;;46.97;18.95;;;-0.60;99.90;;;;;;5050596;28;20040;-48
2023/01/25 12:40:53;;;;;;;50.08;19.10;;;-0.40;99.90;;;;;;5049694;28;20045;-46
2023/01/25 12:43:51;;;;;;;45.17;18.65;;;-0.60;99.90;;;;;;5051078;28;20092;-47
2023/01/25 12:46:41;;;;;;;48.95;18.45;;;-0.60;99.90;;;;;;5046185;28;20053;-46